Time;durP1;ratioP1;P1;durP2;ratioP2;P2;SDS_P1;SDS_P2;PMS_P1;PMS_P2;Temp;Humidity;BMP_temperature;BMP_pressure;BME280_temperature;BME280_humidity;BME280_pressure;Samples;Min_cycle;Max_cycle;Signal;HPM_P1;HPM_P2
2022/09/08 00:00:30;;;;;;;1.93;1.77;;;;;;;;;;5050833;28;20570;-80
2022/09/08 00:03:01;;;;;;;2.87;1.80;;;;;;;;;;5035261;28;20207;-80
2022/09/08 00:05:31;;;;;;;1.57;1.47;;;;;;;;;;5039447;28;20203;-81
2022/09/08 00:07:59;;;;;;;1.60;1.50;;;;;;;;;;5050772;28;20263;-81
2022/09/08 00:10:26;;;;;;;2.53;1.77;;;;;;;;;;5050453;28;20209;-81
2022/09/08 00:12:53;;;;;;;3.47;2.60;;;;;;;;;;5050615;28;20224;-81
2022/09/08 00:15:20;;;;;;;1.87;1.77;;;;;;;;;;5050766;28;20291;-81
2022/09/08 00:17:47;;;;;;;2.50;1.87;;;;;;;;;;5050187;28;20330;-81
2022/09/08 00:20:14;;;;;;;1.63;1.53;;;;;;;;;;5049849;28;20593;-80
2022/09/08 00:22:42;;;;;;;1.60;1.50;;;;;;;;;;5050394;28;20220;-81
2022/09/08 00:25:09;;;;;;;2.07;1.83;;;;;;;;;;5050186;28;20760;-81
2022/09/08 00:27:36;;;;;;;1.47;1.37;;;;;;;;;;5050133;28;20213;-81
2022/09/08 00:30:03;;;;;;;1.53;1.43;;;;;;;;;;5050427;28;20205;-80
2022/09/08 00:32:30;;;;;;;2.20;2.00;;;;;;;;;;5050274;28;20225;-80
2022/09/08 00:34:58;;;;;;;2.57;2.37;;;;;;;;;;5050000;28;20614;-80
2022/09/08 00:37:26;;;;;;;1.63;1.53;;;;;;;;;;5035038;28;20263;-81
2022/09/08 00:39:54;;;;;;;2.13;1.90;;;;;;;;;;5047081;28;20231;-81
2022/09/08 00:42:21;;;;;;;2.03;1.83;;;;;;;;;;5050384;28;20273;-80
2022/09/08 00:44:49;;;;;;;1.80;1.70;;;;;;;;;;5049755;28;20204;-81
2022/09/08 00:47:20;;;;;;;1.97;1.80;;;;;;;;;;5037969;28;20208;-81
2022/09/08 00:49:49;;;;;;;2.33;1.87;;;;;;;;;;5046834;28;20213;-80
2022/09/08 00:52:16;;;;;;;1.70;1.60;;;;;;;;;;5050039;28;20203;-81
2022/09/08 00:54:44;;;;;;;2.13;1.93;;;;;;;;;;5037476;28;20210;-81
2022/09/08 00:57:13;;;;;;;1.90;1.70;;;;;;;;;;5039498;28;20653;-81
2022/09/08 00:59:40;;;;;;;1.97;1.87;;;;;;;;;;5050009;28;20211;-80
2022/09/08 01:02:23;;;;;;;2.10;1.90;;;;;;;;;;5045535;28;20296;-80
2022/09/08 01:04:55;;;;;;;2.17;1.80;;;;;;;;;;5049901;28;20207;-80
2022/09/08 01:13:06;;;;;;;1.83;1.73;;;;;;;;;;5013824;28;20242;-80
2022/09/08 01:15:33;;;;;;;2.40;2.20;;;;;;;;;;5030343;28;20318;-80
2022/09/08 01:18:00;;;;;;;1.47;1.37;;;;;;;;;;5049576;28;20261;-80
2022/09/08 01:20:31;;;;;;;1.60;1.50;;;;;;;;;;5042388;28;20254;-80
2022/09/08 01:23:09;;;;;;;2.20;2.00;;;;;;;;;;5020909;28;20204;-80
2022/09/08 01:26:06;;;;;;;2.20;2.03;;;;;;;;;;5037992;28;20231;-81
2022/09/08 01:28:36;;;;;;;1.53;1.43;;;;;;;;;;5029226;28;20234;-81
2022/09/08 01:31:04;;;;;;;1.83;1.70;;;;;;;;;;5044232;28;20198;-81
2022/09/08 01:33:31;;;;;;;1.67;1.57;;;;;;;;;;5034478;28;20232;-81
2022/09/08 01:35:58;;;;;;;2.27;1.70;;;;;;;;;;5036120;28;20208;-81
2022/09/08 01:38:24;;;;;;;4.47;2.10;;;;;;;;;;5032814;28;20207;-82
2022/09/08 01:40:51;;;;;;;2.10;1.20;;;;;;;;;;5031223;28;20213;-86
2022/09/08 01:43:18;;;;;;;2.00;1.77;;;;;;;;;;5032578;28;20299;-81
2022/09/08 01:45:46;;;;;;;2.43;2.33;;;;;;;;;;5045050;28;20488;-81
2022/09/08 01:48:14;;;;;;;1.27;1.17;;;;;;;;;;5039238;28;20198;-81
2022/09/08 01:50:40;;;;;;;2.57;2.20;;;;;;;;;;5045395;28;20193;-80
2022/09/08 01:53:08;;;;;;;2.20;1.87;;;;;;;;;;5039774;28;20228;-81
2022/09/08 01:55:35;;;;;;;2.00;1.87;;;;;;;;;;5038236;28;20201;-80
2022/09/08 01:58:01;;;;;;;1.60;1.50;;;;;;;;;;5046330;28;20228;-81
2022/09/08 02:00:28;;;;;;;2.03;1.80;;;;;;;;;;5037243;28;20201;-83
2022/09/08 02:02:56;;;;;;;2.60;2.40;;;;;;;;;;5052644;28;20238;-81
2022/09/08 02:05:23;;;;;;;2.27;2.07;;;;;;;;;;5047596;28;20598;-80
2022/09/08 02:07:50;;;;;;;1.83;1.73;;;;;;;;;;5052436;28;20593;-79
2022/09/08 02:10:17;;;;;;;2.07;1.70;;;;;;;;;;5046488;28;20258;-79
2022/09/08 02:12:44;;;;;;;1.77;1.67;;;;;;;;;;5049635;28;20259;-79
2022/09/08 02:15:11;;;;;;;1.60;1.50;;;;;;;;;;5043354;28;20208;-84
2022/09/08 02:17:38;;;;;;;2.90;1.73;;;;;;;;;;5020985;28;20207;-88
2022/09/08 02:20:07;;;;;;;1.70;1.60;;;;;;;;;;5049188;28;20202;-87
2022/09/08 02:22:34;;;;;;;1.63;1.53;;;;;;;;;;5034461;28;20218;-86
2022/09/08 02:25:01;;;;;;;1.33;1.23;;;;;;;;;;5041005;28;20198;-86
2022/09/08 02:27:28;;;;;;;1.50;1.40;;;;;;;;;;5029347;28;20193;-88
2022/09/08 02:29:55;;;;;;;2.13;1.97;;;;;;;;;;5043365;28;20202;-88
2022/09/08 02:32:21;;;;;;;1.60;1.50;;;;;;;;;;5053053;28;20199;-87
2022/09/08 02:34:48;;;;;;;2.23;2.13;;;;;;;;;;5051334;28;20226;-88
2022/09/08 02:37:16;;;;;;;1.97;1.87;;;;;;;;;;5052796;28;20660;-88
2022/09/08 02:39:44;;;;;;;2.83;2.30;;;;;;;;;;5050169;28;20632;-88
2022/09/08 02:42:11;;;;;;;2.37;2.17;;;;;;;;;;5041273;28;20204;-87
2022/09/08 02:44:38;;;;;;;1.60;1.50;;;;;;;;;;5052023;28;20253;-88
2022/09/08 02:47:05;;;;;;;2.00;1.83;;;;;;;;;;5053186;28;20205;-88
2022/09/08 02:49:32;;;;;;;1.97;1.80;;;;;;;;;;5052903;28;20210;-88
2022/09/08 02:51:59;;;;;;;1.67;1.57;;;;;;;;;;5052719;28;20273;-87
2022/09/08 02:54:27;;;;;;;2.73;2.53;;;;;;;;;;5045121;28;20232;-88
2022/09/08 02:56:54;;;;;;;1.73;1.63;;;;;;;;;;5047329;28;20209;-89
2022/09/08 02:59:21;;;;;;;1.93;1.83;;;;;;;;;;5052813;28;20211;-88
2022/09/08 03:01:48;;;;;;;2.17;2.00;;;;;;;;;;5051976;28;20216;-88
2022/09/08 03:04:15;;;;;;;2.90;1.90;;;;;;;;;;5039405;28;20209;-88
2022/09/08 03:06:43;;;;;;;3.10;2.63;;;;;;;;;;5039697;28;20256;-87
2022/09/08 03:09:11;;;;;;;2.73;2.53;;;;;;;;;;5016889;28;20203;-87
2022/09/08 03:11:39;;;;;;;2.03;1.87;;;;;;;;;;5012120;28;20204;-88
2022/09/08 03:14:06;;;;;;;1.60;1.50;;;;;;;;;;5011610;28;20228;-88
2022/09/08 03:16:33;;;;;;;2.13;1.83;;;;;;;;;;5012009;28;20196;-89
2022/09/08 03:19:00;;;;;;;1.90;1.80;;;;;;;;;;5011615;28;20209;-87
2022/09/08 03:21:27;;;;;;;2.37;2.17;;;;;;;;;;5014651;28;20665;-88
2022/09/08 03:23:54;;;;;;;1.60;1.50;;;;;;;;;;5014391;28;20274;-88
2022/09/08 03:26:22;;;;;;;1.97;1.87;;;;;;;;;;4999946;28;21558;-85
2022/09/08 03:28:50;;;;;;;2.33;2.13;;;;;;;;;;5018660;28;20314;-86
2022/09/08 03:31:19;;;;;;;1.70;1.60;;;;;;;;;;5010742;28;20216;-85
2022/09/08 03:33:46;;;;;;;1.60;1.50;;;;;;;;;;5009953;28;20220;-84
2022/09/08 03:36:14;;;;;;;2.93;1.80;;;;;;;;;;5011002;28;20291;-84
2022/09/08 03:38:41;;;;;;;2.90;2.10;;;;;;;;;;5009981;28;20263;-81
2022/09/08 03:41:10;;;;;;;1.80;1.67;;;;;;;;;;5037039;28;20206;-86
2022/09/08 03:43:37;;;;;;;1.70;1.60;;;;;;;;;;5050387;28;20328;-81
2022/09/08 03:46:08;;;;;;;1.90;1.73;;;;;;;;;;5031952;28;20591;-81
2022/09/08 03:48:35;;;;;;;1.53;1.43;;;;;;;;;;5049607;28;20336;-81
2022/09/08 03:51:09;;;;;;;3.80;1.80;;;;;;;;;;5049891;28;20198;-81
2022/09/08 03:53:35;;;;;;;1.20;1.20;;;;;;;;;;5048961;28;20705;-81
2022/09/08 03:56:06;;;;;;;2.23;1.83;;;;;;;;;;5029118;28;20211;-81
2022/09/08 03:58:33;;;;;;;1.93;1.73;;;;;;;;;;5050681;28;20227;-81
2022/09/08 04:01:00;;;;;;;1.70;1.60;;;;;;;;;;5050868;28;20206;-78
2022/09/08 04:03:29;;;;;;;1.57;1.47;;;;;;;;;;5049626;28;20283;-79
2022/09/08 04:05:56;;;;;;;1.67;1.50;;;;;;;;;;5047165;28;20752;-78
2022/09/08 04:08:23;;;;;;;1.60;1.50;;;;;;;;;;5020170;28;20211;-78
2022/09/08 04:10:49;;;;;;;1.53;1.47;;;;;;;;;;5028697;28;20195;-78
2022/09/08 04:13:16;;;;;;;1.50;1.40;;;;;;;;;;5036606;28;20317;-78
2022/09/08 04:15:43;;;;;;;2.10;2.00;;;;;;;;;;5048678;28;20209;-78
2022/09/08 04:18:09;;;;;;;2.33;2.13;;;;;;;;;;5050208;28;20209;-78
2022/09/08 04:20:39;;;;;;;2.13;1.93;;;;;;;;;;5034864;28;20199;-79
2022/09/08 04:23:06;;;;;;;2.00;1.90;;;;;;;;;;5033607;28;20210;-78
2022/09/08 04:25:33;;;;;;;2.50;2.30;;;;;;;;;;5044355;28;20202;-78
2022/09/08 04:28:00;;;;;;;2.03;1.93;;;;;;;;;;5037706;28;20198;-78
2022/09/08 04:30:27;;;;;;;1.83;1.73;;;;;;;;;;5049465;28;20198;-79
2022/09/08 04:32:54;;;;;;;2.10;1.90;;;;;;;;;;5030008;28;20287;-78
2022/09/08 04:35:21;;;;;;;2.30;1.97;;;;;;;;;;5042222;28;20230;-78
2022/09/08 04:37:49;;;;;;;2.60;2.40;;;;;;;;;;5041556;28;20203;-78
2022/09/08 04:40:16;;;;;;;1.50;1.40;;;;;;;;;;5040577;28;20202;-78
2022/09/08 04:42:43;;;;;;;2.13;1.93;;;;;;;;;;5049330;28;20207;-78
2022/09/08 04:45:11;;;;;;;2.20;2.10;;;;;;;;;;5050252;28;20645;-78
2022/09/08 04:47:37;;;;;;;1.57;1.33;;;;;;;;;;5048531;28;20284;-78
2022/09/08 04:50:04;;;;;;;1.37;1.27;;;;;;;;;;5024304;28;20206;-78
2022/09/08 04:52:31;;;;;;;1.50;1.40;;;;;;;;;;5050448;28;20219;-78
2022/09/08 04:55:01;;;;;;;2.17;1.70;;;;;;;;;;5037791;28;20247;-78
2022/09/08 04:57:28;;;;;;;2.83;2.63;;;;;;;;;;5048633;28;20233;-78
2022/09/08 04:59:55;;;;;;;2.03;1.70;;;;;;;;;;5050118;28;20288;-78
2022/09/08 05:02:22;;;;;;;1.80;1.70;;;;;;;;;;5049897;28;20200;-78
2022/09/08 05:04:49;;;;;;;6.00;2.57;;;;;;;;;;5049965;28;20214;-78
2022/09/08 05:07:16;;;;;;;1.97;1.87;;;;;;;;;;5052179;28;20294;-78
2022/09/08 05:09:43;;;;;;;1.90;1.70;;;;;;;;;;5053391;28;20206;-78
2022/09/08 05:12:11;;;;;;;2.20;1.93;;;;;;;;;;5054262;28;20203;-78
2022/09/08 05:14:38;;;;;;;2.10;1.87;;;;;;;;;;5053611;28;20225;-78
2022/09/08 05:17:04;;;;;;;1.87;1.77;;;;;;;;;;5054049;28;20567;-79
2022/09/08 05:19:31;;;;;;;1.47;1.37;;;;;;;;;;5045220;28;20203;-78
2022/09/08 05:21:58;;;;;;;2.70;2.50;;;;;;;;;;5034515;28;20595;-78
2022/09/08 05:24:25;;;;;;;2.43;1.70;;;;;;;;;;5053347;28;20294;-79
2022/09/08 05:26:52;;;;;;;2.97;2.13;;;;;;;;;;5054000;28;20209;-78
2022/09/08 05:29:22;;;;;;;3.10;2.80;;;;;;;;;;5053215;28;20634;-78
2022/09/08 05:31:49;;;;;;;1.60;1.47;;;;;;;;;;5053605;28;20678;-78
2022/09/08 05:34:16;;;;;;;5.10;2.03;;;;;;;;;;5053469;28;20232;-79
2022/09/08 05:36:42;;;;;;;2.60;2.40;;;;;;;;;;5052909;28;20204;-78
2022/09/08 05:39:10;;;;;;;1.70;1.60;;;;;;;;;;5053323;28;20207;-78
2022/09/08 05:41:37;;;;;;;2.67;2.47;;;;;;;;;;5053164;28;20201;-78
2022/09/08 05:44:03;;;;;;;3.87;2.13;;;;;;;;;;5053333;28;20691;-78
2022/09/08 05:46:31;;;;;;;3.03;2.00;;;;;;;;;;5053274;28;20746;-78
2022/09/08 05:48:59;;;;;;;1.93;1.83;;;;;;;;;;5052814;28;20211;-78
2022/09/08 05:51:26;;;;;;;3.00;2.00;;;;;;;;;;5051431;28;20209;-78
2022/09/08 05:53:53;;;;;;;4.37;1.93;;;;;;;;;;5024254;28;20201;-78
2022/09/08 05:56:20;;;;;;;2.57;2.43;;;;;;;;;;5042368;28;20216;-78
2022/09/08 05:58:51;;;;;;;2.00;1.90;;;;;;;;;;5052662;28;20718;-78
2022/09/08 06:01:19;;;;;;;2.53;2.33;;;;;;;;;;5037035;28;20231;-78
2022/09/08 06:03:51;;;;;;;2.47;2.27;;;;;;;;;;5041704;28;20673;-78
2022/09/08 06:06:18;;;;;;;3.70;1.87;;;;;;;;;;5053052;28;20209;-78
2022/09/08 06:08:44;;;;;;;2.33;2.13;;;;;;;;;;5052770;28;20224;-78
2022/09/08 06:11:12;;;;;;;1.80;1.70;;;;;;;;;;5024852;28;20670;-78
2022/09/08 06:13:39;;;;;;;2.10;1.90;;;;;;;;;;5052760;28;20288;-78
2022/09/08 06:16:08;;;;;;;2.40;2.20;;;;;;;;;;5052423;28;20226;-78
2022/09/08 06:18:35;;;;;;;1.70;1.60;;;;;;;;;;5051811;28;20212;-78
2022/09/08 06:21:06;;;;;;;1.83;1.63;;;;;;;;;;5052591;28;20233;-78
2022/09/08 06:23:33;;;;;;;1.57;1.47;;;;;;;;;;5052298;28;20202;-78
2022/09/08 06:26:10;;;;;;;3.10;2.10;;;;;;;;;;5052355;28;20213;-78
2022/09/08 06:28:42;;;;;;;2.87;2.10;;;;;;;;;;5052677;28;20206;-77
2022/09/08 06:31:10;;;;;;;1.97;1.53;;;;;;;;;;5052471;28;20206;-78
2022/09/08 06:33:40;;;;;;;1.70;1.60;;;;;;;;;;5052521;28;20206;-78
2022/09/08 06:36:14;;;;;;;2.13;1.60;;;;;;;;;;5051972;28;20230;-78
2022/09/08 06:38:44;;;;;;;1.90;1.80;;;;;;;;;;5052026;28;20205;-78
2022/09/08 06:41:14;;;;;;;2.00;1.90;;;;;;;;;;5051898;28;20662;-78
2022/09/08 06:43:42;;;;;;;1.40;1.30;;;;;;;;;;5051882;28;20210;-78
2022/09/08 06:46:19;;;;;;;2.07;1.90;;;;;;;;;;5052245;28;20206;-78
2022/09/08 06:48:45;;;;;;;2.13;1.97;;;;;;;;;;5051830;28;20236;-78
2022/09/08 06:51:26;;;;;;;2.13;1.93;;;;;;;;;;5052240;28;20201;-78
2022/09/08 06:54:02;;;;;;;2.10;1.90;;;;;;;;;;5048537;28;20241;-78
2022/09/08 06:56:36;;;;;;;1.67;1.57;;;;;;;;;;5042507;28;20201;-78
2022/09/08 06:59:08;;;;;;;2.73;1.57;;;;;;;;;;5051590;28;20307;-78
2022/09/08 07:01:41;;;;;;;2.00;1.90;;;;;;;;;;5052114;28;20205;-78
2022/09/08 07:04:18;;;;;;;1.73;1.60;;;;;;;;;;5051322;28;20209;-78
2022/09/08 07:06:51;;;;;;;1.73;1.63;;;;;;;;;;5051830;28;20233;-78
2022/09/08 07:09:24;;;;;;;1.97;1.87;;;;;;;;;;5043758;28;20675;-78
2022/09/08 07:11:59;;;;;;;1.43;1.37;;;;;;;;;;5033548;28;20206;-78
2022/09/08 07:15:02;;;;;;;1.27;1.10;;;;;;;;;;5051179;28;20781;-78
2022/09/08 07:17:33;;;;;;;1.50;1.40;;;;;;;;;;5051476;28;20213;-78
2022/09/08 07:20:00;;;;;;;1.83;1.70;;;;;;;;;;5051333;28;20197;-78
2022/09/08 07:22:36;;;;;;;1.77;1.67;;;;;;;;;;5051178;28;20256;-78
2022/09/08 07:25:15;;;;;;;2.20;2.00;;;;;;;;;;5051076;28;20725;-78
2022/09/08 07:27:42;;;;;;;2.20;1.80;;;;;;;;;;5051483;28;20205;-78
2022/09/08 07:30:14;;;;;;;1.93;1.77;;;;;;;;;;5051232;28;20255;-78
2022/09/08 07:32:41;;;;;;;1.83;1.73;;;;;;;;;;5051105;28;20202;-78
2022/09/08 07:35:13;;;;;;;3.33;1.80;;;;;;;;;;5051321;28;20283;-78
2022/09/08 07:37:44;;;;;;;1.93;1.63;;;;;;;;;;5051024;28;20269;-78
2022/09/08 07:40:17;;;;;;;3.27;2.27;;;;;;;;;;5051218;28;20689;-78
2022/09/08 07:42:44;;;;;;;3.00;2.10;;;;;;;;;;5051062;28;20202;-78
2022/09/08 07:45:12;;;;;;;2.43;2.23;;;;;;;;;;5051147;28;20216;-78
2022/09/08 07:47:57;;;;;;;2.00;1.90;;;;;;;;;;5050933;28;20202;-78
2022/09/08 07:50:53;;;;;;;2.43;2.23;;;;;;;;;;5050237;28;20699;-78
2022/09/08 07:53:29;;;;;;;2.50;2.20;;;;;;;;;;5050518;28;20225;-78
2022/09/08 07:56:02;;;;;;;3.37;1.80;;;;;;;;;;5022942;28;20236;-78
2022/09/08 07:58:33;;;;;;;2.33;2.20;;;;;;;;;;5050469;28;20221;-78
2022/09/08 08:01:02;;;;;;;2.43;2.23;;;;;;;;;;5050587;28;20202;-78
2022/09/08 08:03:46;;;;;;;2.63;2.30;;;;;;;;;;5050803;28;20202;-78
2022/09/08 08:06:16;;;;;;;2.40;2.20;;;;;;;;;;5050362;28;20668;-78
2022/09/08 08:08:50;;;;;;;3.80;3.40;;;;;;;;;;5050832;28;20206;-78
2022/09/08 08:11:23;;;;;;;2.33;2.13;;;;;;;;;;5050787;28;20276;-78
2022/09/08 08:13:59;;;;;;;2.10;1.90;;;;;;;;;;5050768;28;20206;-78
2022/09/08 08:16:33;;;;;;;2.80;2.60;;;;;;;;;;5050457;28;20232;-78
2022/09/08 08:19:08;;;;;;;2.30;2.20;;;;;;;;;;5050388;28;20208;-78
2022/09/08 08:21:37;;;;;;;2.33;2.13;;;;;;;;;;5050533;28;20209;-78
2022/09/08 08:24:16;;;;;;;2.63;2.43;;;;;;;;;;5050474;28;20201;-78
2022/09/08 08:26:45;;;;;;;2.30;2.13;;;;;;;;;;5050270;28;20208;-78
2022/09/08 08:29:28;;;;;;;2.83;2.53;;;;;;;;;;5050901;28;20292;-78
2022/09/08 08:31:59;;;;;;;2.43;1.90;;;;;;;;;;5050191;28;20693;-78
2022/09/08 08:34:29;;;;;;;3.53;2.03;;;;;;;;;;5050142;28;20201;-78
2022/09/08 08:36:59;;;;;;;2.90;2.70;;;;;;;;;;5050459;28;20634;-78
2022/09/08 08:39:27;;;;;;;2.57;2.37;;;;;;;;;;5050507;28;20201;-78
2022/09/08 08:42:04;;;;;;;3.10;2.80;;;;;;;;;;5051978;28;20590;-77
2022/09/08 08:44:43;;;;;;;2.67;2.40;;;;;;;;;;5053881;28;20205;-78
2022/09/08 08:47:37;;;;;;;2.90;2.70;;;;;;;;;;5054891;28;20200;-78
2022/09/08 08:50:22;;;;;;;5.50;3.27;;;;;;;;;;5054130;28;20209;-78
2022/09/08 08:53:02;;;;;;;2.53;2.33;;;;;;;;;;5054237;28;20201;-78
2022/09/08 08:55:41;;;;;;;2.47;2.37;;;;;;;;;;5039758;28;20291;-78
2022/09/08 08:58:24;;;;;;;1.97;1.87;;;;;;;;;;5054200;28;20718;-78
2022/09/08 09:00:59;;;;;;;3.30;3.07;;;;;;;;;;5026167;28;20267;-78
2022/09/08 09:04:10;;;;;;;2.30;2.20;;;;;;;;;;5053689;28;20328;-78
2022/09/08 09:06:47;;;;;;;2.60;2.27;;;;;;;;;;5005330;28;20757;-78
2022/09/08 09:09:45;;;;;;;1.80;1.70;;;;;;;;;;5053495;28;20202;-78
2022/09/08 09:12:27;;;;;;;2.00;1.90;;;;;;;;;;5053851;28;20283;-77
2022/09/08 09:15:16;;;;;;;1.83;1.73;;;;;;;;;;5053788;28;20263;-78
2022/09/08 09:18:07;;;;;;;2.07;1.97;;;;;;;;;;5017666;28;20216;-78
2022/09/08 09:20:51;;;;;;;1.90;1.80;;;;;;;;;;5054316;28;20213;-77
2022/09/08 09:23:34;;;;;;;2.57;2.37;;;;;;;;;;5053618;28;21005;-78
2022/09/08 09:26:02;;;;;;;1.93;1.83;;;;;;;;;;5053661;28;20290;-78
2022/09/08 09:28:54;;;;;;;2.13;2.03;;;;;;;;;;5037445;28;20211;-78
2022/09/08 09:31:58;;;;;;;1.80;1.70;;;;;;;;;;5048910;28;20217;-78
2022/09/08 09:34:46;;;;;;;2.07;1.90;;;;;;;;;;5028161;28;20217;-78
2022/09/08 09:37:31;;;;;;;2.00;1.80;;;;;;;;;;5012515;28;20625;-78
2022/09/08 09:40:11;;;;;;;1.50;1.50;;;;;;;;;;5044470;28;20214;-78
2022/09/08 09:42:54;;;;;;;2.47;2.33;;;;;;;;;;5038427;28;20217;-78
2022/09/08 09:45:36;;;;;;;2.00;1.90;;;;;;;;;;5052935;28;20198;-78
2022/09/08 09:48:38;;;;;;;2.43;2.20;;;;;;;;;;5052999;28;20198;-78
2022/09/08 09:51:15;;;;;;;2.50;2.00;;;;;;;;;;5053100;28;20209;-78
2022/09/08 09:54:04;;;;;;;2.23;2.13;;;;;;;;;;5051230;28;20244;-78
2022/09/08 09:57:05;;;;;;;2.33;2.13;;;;;;;;;;5043937;28;20229;-78
2022/09/08 09:59:58;;;;;;;1.80;1.70;;;;;;;;;;5052977;28;20233;-78
2022/09/08 10:02:56;;;;;;;1.80;1.70;;;;;;;;;;5052947;28;20281;-78
2022/09/08 10:05:46;;;;;;;4.50;2.33;;;;;;;;;;5052661;28;20208;-78
2022/09/08 10:08:54;;;;;;;1.93;1.60;;;;;;;;;;5052996;28;20201;-78
2022/09/08 10:11:38;;;;;;;2.50;2.30;;;;;;;;;;5052917;28;20201;-78
2022/09/08 10:14:25;;;;;;;1.90;1.80;;;;;;;;;;5052326;28;20217;-78
2022/09/08 10:17:16;;;;;;;2.10;1.93;;;;;;;;;;5052492;28;20639;-78
2022/09/08 10:20:15;;;;;;;2.30;2.20;;;;;;;;;;5052389;28;20198;-78
2022/09/08 10:23:14;;;;;;;2.13;2.00;;;;;;;;;;5021981;28;20206;-79
2022/09/08 10:26:06;;;;;;;1.67;1.57;;;;;;;;;;5052338;28;20213;-78
2022/09/08 10:29:23;;;;;;;2.07;1.97;;;;;;;;;;5051907;28;20248;-78
2022/09/08 10:32:27;;;;;;;3.73;2.70;;;;;;;;;;5002825;28;20210;-78
2022/09/08 10:35:16;;;;;;;2.47;2.20;;;;;;;;;;5020925;28;20201;-77
2022/09/08 10:38:13;;;;;;;1.93;1.80;;;;;;;;;;5052108;28;20657;-78
2022/09/08 10:40:46;;;;;;;1.90;1.70;;;;;;;;;;5034449;28;20591;-78
2022/09/08 10:43:49;;;;;;;2.30;2.08;;;;;;;;;;5051800;28;20190;-78
2022/09/08 10:46:34;;;;;;;2.13;1.98;;;;;;;;;;5031396;28;20339;-78
2022/09/08 10:49:24;;;;;;;2.40;2.07;;;;;;;;;;5051949;28;20210;-78
2022/09/08 10:52:08;;;;;;;1.30;1.30;;;;;;;;;;5052250;28;20201;-78
2022/09/08 10:55:14;;;;;;;1.87;1.77;;;;;;;;;;5043242;28;20198;-77
2022/09/08 10:57:53;;;;;;;1.80;1.70;;;;;;;;;;5024579;28;20260;-77
2022/09/08 11:00:21;;;;;;;2.08;1.98;;;;;;;;;;5051922;28;20204;-78
2022/09/08 11:03:02;;;;;;;2.08;1.98;;;;;;;;;;5052078;28;20198;-78
2022/09/08 11:05:49;;;;;;;2.53;2.20;;;;;;;;;;5033490;28;20647;-78
2022/09/08 11:08:53;;;;;;;1.67;1.58;;;;;;;;;;5051629;28;20194;-79
2022/09/08 11:11:37;;;;;;;2.95;2.38;;;;;;;;;;5050510;28;20231;-78
2022/09/08 11:14:16;;;;;;;2.15;2.00;;;;;;;;;;5051876;28;20206;-78
2022/09/08 11:17:17;;;;;;;2.05;1.90;;;;;;;;;;5051679;28;20312;-78
2022/09/08 11:19:46;;;;;;;2.10;1.90;;;;;;;;;;5040738;28;20202;-78
2022/09/08 11:22:34;;;;;;;1.95;1.85;;;;;;;;;;5051371;28;20210;-78
2022/09/08 11:25:15;;;;;;;1.80;1.70;;;;;;;;;;5051546;28;20205;-78
2022/09/08 11:27:46;;;;;;;1.90;1.80;;;;;;;;;;5051271;28;20210;-78
2022/09/08 11:30:18;;;;;;;2.33;2.22;;;;;;;;;;5051019;28;20209;-77
2022/09/08 11:32:52;;;;;;;2.53;1.88;;;;;;;;;;5051350;28;20216;-78
2022/09/08 11:35:33;;;;;;;2.23;2.03;;;;;;;;;;5050903;28;20202;-78
2022/09/08 11:38:16;;;;;;;2.25;2.05;;;;;;;;;;5051450;28;20206;-78
2022/09/08 11:41:16;;;;;;;1.85;1.75;;;;;;;;;;5050786;28;20599;-77
2022/09/08 11:43:55;;;;;;;2.03;1.88;;;;;;;;;;5050754;28;20212;-78
2022/09/08 11:46:38;;;;;;;1.98;1.85;;;;;;;;;;5051244;28;20198;-78
2022/09/08 11:49:22;;;;;;;1.63;1.52;;;;;;;;;;5050693;28;20205;-78
2022/09/08 11:52:02;;;;;;;2.03;1.90;;;;;;;;;;5050576;28;20339;-78
2022/09/08 11:54:41;;;;;;;2.10;2.00;;;;;;;;;;5042887;28;20597;-78
2022/09/08 11:57:26;;;;;;;1.85;1.75;;;;;;;;;;5046683;28;20234;-77
2022/09/08 12:00:21;;;;;;;2.08;1.98;;;;;;;;;;5051033;28;20648;-77
2022/09/08 12:03:20;;;;;;;1.60;1.50;;;;;;;;;;5024498;28;20276;-77
2022/09/08 12:06:00;;;;;;;2.88;2.67;;;;;;;;;;5017515;28;20201;-77
2022/09/08 12:08:38;;;;;;;2.00;1.90;;;;;;;;;;5050644;28;20212;-78
2022/09/08 12:11:11;;;;;;;1.70;1.60;;;;;;;;;;5050562;28;20280;-78
2022/09/08 12:13:47;;;;;;;1.58;1.48;;;;;;;;;;5050355;28;20209;-78
2022/09/08 12:16:36;;;;;;;1.85;1.75;;;;;;;;;;5049933;28;20230;-78
2022/09/08 12:19:30;;;;;;;2.00;1.90;;;;;;;;;;5028904;28;20212;-78
2022/09/08 12:22:07;;;;;;;2.25;2.15;;;;;;;;;;5050366;28;20688;-78
2022/09/08 12:24:45;;;;;;;1.90;1.80;;;;;;;;;;5050246;28;20280;-77
2022/09/08 12:27:20;;;;;;;3.58;2.05;;;;;;;;;;5050170;28;20700;-77
2022/09/08 12:30:05;;;;;;;1.48;1.40;;;;;;;;;;5050030;28;20202;-78
2022/09/08 12:32:46;;;;;;;2.08;1.98;;;;;;;;;;5050320;28;20581;-77
2022/09/08 12:35:29;;;;;;;2.08;1.98;;;;;;;;;;5050220;28;20202;-78
2022/09/08 12:37:59;;;;;;;2.00;1.90;;;;;;;;;;5050272;28;20241;-78
2022/09/08 12:40:52;;;;;;;1.92;1.83;;;;;;;;;;5049945;28;20209;-77
2022/09/08 12:43:21;;;;;;;1.60;1.50;;;;;;;;;;5050181;28;20703;-78
2022/09/08 12:45:58;;;;;;;1.75;1.65;;;;;;;;;;5029836;28;20210;-77
2022/09/08 12:48:30;;;;;;;2.17;2.00;;;;;;;;;;5046205;28;20201;-77
2022/09/08 12:51:05;;;;;;;1.60;1.50;;;;;;;;;;5049842;28;20301;-78
2022/09/08 12:54:09;;;;;;;1.67;1.58;;;;;;;;;;5050064;28;20259;-77
2022/09/08 12:56:44;;;;;;;1.83;1.73;;;;;;;;;;5029605;28;20232;-77
2022/09/08 12:59:22;;;;;;;1.83;1.67;;;;;;;;;;5046430;28;20224;-77
2022/09/08 13:01:58;;;;;;;1.90;1.80;;;;;;;;;;5050307;28;20292;-78
2022/09/08 13:04:35;;;;;;;2.08;1.70;;;;;;;;;;5049763;28;20593;-78
2022/09/08 13:07:14;;;;;;;1.80;1.70;;;;;;;;;;5049883;28;20220;-77
2022/09/08 13:09:47;;;;;;;1.88;1.77;;;;;;;;;;5049769;28;20208;-78
2022/09/08 13:12:30;;;;;;;3.05;2.00;;;;;;;;;;5050245;28;20592;-77
2022/09/08 13:15:18;;;;;;;2.45;2.25;;;;;;;;;;5049852;28;20202;-78
2022/09/08 13:17:48;;;;;;;2.17;2.08;;;;;;;;;;5049648;28;20222;-77
2022/09/08 13:20:34;;;;;;;1.90;1.80;;;;;;;;;;5050465;28;20260;-78
2022/09/08 13:23:12;;;;;;;2.28;2.08;;;;;;;;;;5049474;28;20198;-78
2022/09/08 13:25:44;;;;;;;1.83;1.73;;;;;;;;;;5049983;28;20590;-78
2022/09/08 13:28:19;;;;;;;1.60;1.50;;;;;;;;;;5051222;28;20202;-77
2022/09/08 13:30:53;;;;;;;1.75;1.65;;;;;;;;;;5053995;28;20205;-77
2022/09/08 13:33:48;;;;;;;1.75;1.65;;;;;;;;;;5053438;28;20221;-77
2022/09/08 13:36:40;;;;;;;2.50;2.00;;;;;;;;;;5051632;28;20232;-77
2022/09/08 13:39:21;;;;;;;1.90;1.80;;;;;;;;;;5050246;28;20210;-77
2022/09/08 13:42:03;;;;;;;1.67;1.60;;;;;;;;;;5053716;28;20197;-77
2022/09/08 13:45:01;;;;;;;1.80;1.70;;;;;;;;;;5052614;28;20206;-77
2022/09/08 13:48:29;;;;;;;1.70;1.60;;;;;;;;;;5041603;28;20218;-78
2022/09/08 13:51:17;;;;;;;1.40;1.40;;;;;;;;;;4991672;28;20615;-78
2022/09/08 13:54:12;;;;;;;1.80;1.70;;;;;;;;;;5045028;28;20236;-78
2022/09/08 13:56:59;;;;;;;1.80;1.70;;;;;;;;;;5029182;28;20276;-77
2022/09/08 13:59:33;;;;;;;1.70;1.60;;;;;;;;;;5053068;28;20271;-77
2022/09/08 14:02:00;;;;;;;1.88;1.77;;;;;;;;;;5053255;28;20216;-78
2022/09/08 14:04:31;;;;;;;1.30;1.20;;;;;;;;;;5052561;28;20210;-77
2022/09/08 14:07:03;;;;;;;1.75;1.60;;;;;;;;;;5052945;28;20202;-77
2022/09/08 14:09:31;;;;;;;1.73;1.63;;;;;;;;;;5052040;28;20217;-78
2022/09/08 14:12:09;;;;;;;1.88;1.70;;;;;;;;;;5052601;28;20209;-77
2022/09/08 14:14:55;;;;;;;1.98;1.88;;;;;;;;;;5052475;28;20206;-77
2022/09/08 14:17:46;;;;;;;1.70;1.60;;;;;;;;;;5052684;28;20275;-77
2022/09/08 14:20:19;;;;;;;1.77;1.67;;;;;;;;;;5052588;28;20202;-77
2022/09/08 14:22:52;;;;;;;1.77;1.67;;;;;;;;;;5051509;28;20734;-77
2022/09/08 14:25:21;;;;;;;2.20;2.00;;;;;;;;;;5026636;28;21126;-76
2022/09/08 14:28:13;;;;;;;1.92;1.83;;;;;;;;;;5031388;28;20210;-76
2022/09/08 14:31:00;;;;;;;1.80;1.70;;;;;;;;;;5014290;28;20741;-75
2022/09/08 14:33:33;;;;;;;1.77;1.67;;;;;;;;;;5031572;28;20191;-76
2022/09/08 14:36:17;;;;;;;2.58;1.85;;;;;;;;;;5031925;28;20285;-78
2022/09/08 14:39:15;;;;;;;1.77;1.67;;;;;;;;;;5029843;28;20209;-78
2022/09/08 14:41:47;;;;;;;1.90;1.80;;;;;;;;;;5003302;28;20255;-77
2022/09/08 14:47:24;;;;;;;2.15;2.05;;;;;;;;;;5099660;27;20570;-78
2022/09/08 14:50:19;;;;;;;1.88;1.77;;;;;;;;;;5071242;28;20292;-78
2022/09/08 14:53:12;;;;;;;2.25;1.92;;;;;;;;;;5067822;28;20197;-75
2022/09/08 14:55:42;;;;;;;1.63;1.52;;;;;;;;;;5078951;28;20636;-77
2022/09/08 14:58:21;;;;;;;1.80;1.70;;;;;;;;;;5075807;28;20205;-76
2022/09/08 15:00:51;;;;;;;2.22;2.10;;;;;;;;;;5066322;28;20194;-76
2022/09/08 15:03:26;;;;;;;2.00;1.90;;;;;;;;;;5070747;28;20258;-76
2022/09/08 15:05:53;;;;;;;1.98;1.80;;;;;;;;;;5117774;28;20220;-76
2022/09/08 15:08:22;;;;;;;2.78;2.28;;;;;;;;;;5076936;28;20201;-77
2022/09/08 15:11:04;;;;;;;2.78;1.80;;;;;;;;;;5070237;28;20197;-75
2022/09/08 15:13:32;;;;;;;1.85;1.75;;;;;;;;;;5056421;28;20270;-76
2022/09/08 15:16:23;;;;;;;1.92;1.77;;;;;;;;;;5067174;28;20197;-76
2022/09/08 15:18:56;;;;;;;1.88;1.77;;;;;;;;;;5069639;28;20232;-76
2022/09/08 15:21:25;;;;;;;2.33;2.13;;;;;;;;;;5119388;28;20233;-76
2022/09/08 15:23:54;;;;;;;2.00;1.80;;;;;;;;;;5073979;28;20197;-76
2022/09/08 15:26:40;;;;;;;1.70;1.60;;;;;;;;;;5066140;28;20253;-75
2022/09/08 15:29:38;;;;;;;1.80;1.70;;;;;;;;;;5065815;28;20593;-75
2022/09/08 15:32:29;;;;;;;1.98;1.88;;;;;;;;;;5063780;28;20679;-75
2022/09/08 15:35:16;;;;;;;1.80;1.70;;;;;;;;;;5065877;28;20193;-75
2022/09/08 15:37:48;;;;;;;1.70;1.60;;;;;;;;;;5067130;28;20259;-75
2022/09/08 15:40:18;;;;;;;2.03;1.92;;;;;;;;;;5073441;28;20261;-75